sensor_id;sensor_type;location;lat;lon;timestamp;P1;durP1;ratioP1;P2;durP2;ratioP2
12908;SDS011;6522;49.622;6.126;2023-01-16T00:01:58;11.32;;;3.00;;
12908;SDS011;6522;49.622;6.126;2023-01-16T00:04:45;3.95;;;1.95;;
12908;SDS011;6522;49.622;6.126;2023-01-16T00:07:31;5.20;;;1.98;;
12908;SDS011;6522;49.622;6.126;2023-01-16T00:10:18;7.97;;;2.10;;
12908;SDS011;6522;49.622;6.126;2023-01-16T00:13:04;2.85;;;1.70;;
12908;SDS011;6522;49.622;6.126;2023-01-16T00:15:51;3.30;;;1.90;;
12908;SDS011;6522;49.622;6.126;2023-01-16T00:18:38;6.53;;;2.90;;
12908;SDS011;6522;49.622;6.126;2023-01-16T00:21:24;7.87;;;1.83;;
12908;SDS011;6522;49.622;6.126;2023-01-16T00:24:11;5.72;;;4.28;;
12908;SDS011;6522;49.622;6.126;2023-01-16T00:26:58;4.68;;;3.00;;
12908;SDS011;6522;49.622;6.126;2023-01-16T00:29:44;7.30;;;3.15;;
12908;SDS011;6522;49.622;6.126;2023-01-16T00:32:31;8.50;;;2.85;;
12908;SDS011;6522;49.622;6.126;2023-01-16T00:35:18;5.57;;;2.55;;
12908;SDS011;6522;49.622;6.126;2023-01-16T00:38:05;6.93;;;2.87;;
12908;SDS011;6522;49.622;6.126;2023-01-16T00:40:51;2.90;;;2.65;;
12908;SDS011;6522;49.622;6.126;2023-01-16T00:43:38;8.68;;;3.00;;
12908;SDS011;6522;49.622;6.126;2023-01-16T00:46:25;4.03;;;2.62;;
12908;SDS011;6522;49.622;6.126;2023-01-16T00:49:11;4.15;;;2.35;;
12908;SDS011;6522;49.622;6.126;2023-01-16T00:51:58;3.45;;;2.58;;
12908;SDS011;6522;49.622;6.126;2023-01-16T00:54:45;4.07;;;2.20;;
12908;SDS011;6522;49.622;6.126;2023-01-16T00:57:32;6.03;;;2.65;;
12908;SDS011;6522;49.622;6.126;2023-01-16T01:00:19;5.43;;;3.00;;
12908;SDS011;6522;49.622;6.126;2023-01-16T01:03:05;9.18;;;2.15;;
12908;SDS011;6522;49.622;6.126;2023-01-16T01:05:52;6.45;;;3.03;;
12908;SDS011;6522;49.622;6.126;2023-01-16T01:08:39;4.45;;;2.50;;
12908;SDS011;6522;49.622;6.126;2023-01-16T01:11:26;2.45;;;1.80;;
12908;SDS011;6522;49.622;6.126;2023-01-16T01:14:13;2.78;;;1.90;;
12908;SDS011;6522;49.622;6.126;2023-01-16T01:16:59;8.60;;;2.80;;
12908;SDS011;6522;49.622;6.126;2023-01-16T01:19:46;3.75;;;1.67;;
12908;SDS011;6522;49.622;6.126;2023-01-16T01:22:33;5.12;;;2.15;;
12908;SDS011;6522;49.622;6.126;2023-01-16T01:25:20;6.47;;;2.50;;
12908;SDS011;6522;49.622;6.126;2023-01-16T01:28:06;1.83;;;1.73;;
12908;SDS011;6522;49.622;6.126;2023-01-16T01:30:53;5.15;;;2.00;;
12908;SDS011;6522;49.622;6.126;2023-01-16T01:33:39;2.00;;;1.90;;
12908;SDS011;6522;49.622;6.126;2023-01-16T01:36:26;2.60;;;2.05;;
12908;SDS011;6522;49.622;6.126;2023-01-16T01:39:12;4.20;;;1.65;;
12908;SDS011;6522;49.622;6.126;2023-01-16T01:41:59;5.15;;;2.55;;
12908;SDS011;6522;49.622;6.126;2023-01-16T01:45:15;2.10;;;1.70;;
12908;SDS011;6522;49.622;6.126;2023-01-16T01:48:04;2.17;;;1.98;;
12908;SDS011;6522;49.622;6.126;2023-01-16T01:50:51;2.65;;;2.45;;
12908;SDS011;6522;49.622;6.126;2023-01-16T01:53:41;2.75;;;2.03;;
12908;SDS011;6522;49.622;6.126;2023-01-16T01:56:32;4.28;;;2.20;;
12908;SDS011;6522;49.622;6.126;2023-01-16T01:59:17;4.47;;;1.83;;
12908;SDS011;6522;49.622;6.126;2023-01-16T02:02:03;3.58;;;1.27;;
12908;SDS011;6522;49.622;6.126;2023-01-16T02:04:49;1.95;;;1.70;;
12908;SDS011;6522;49.622;6.126;2023-01-16T02:07:35;4.45;;;1.05;;
12908;SDS011;6522;49.622;6.126;2023-01-16T02:10:28;4.05;;;1.58;;
12908;SDS011;6522;49.622;6.126;2023-01-16T02:13:12;6.80;;;1.35;;
12908;SDS011;6522;49.622;6.126;2023-01-16T02:15:59;5.40;;;1.55;;
12908;SDS011;6522;49.622;6.126;2023-01-16T02:19:04;3.05;;;1.60;;
12908;SDS011;6522;49.622;6.126;2023-01-16T02:28:03;5.20;;;1.85;;
12908;SDS011;6522;49.622;6.126;2023-01-16T02:31:02;2.00;;;1.62;;
12908;SDS011;6522;49.622;6.126;2023-01-16T02:33:56;4.57;;;1.95;;
12908;SDS011;6522;49.622;6.126;2023-01-16T02:42:29;3.42;;;1.85;;
12908;SDS011;6522;49.622;6.126;2023-01-16T02:45:33;3.03;;;1.92;;
12908;SDS011;6522;49.622;6.126;2023-01-16T02:51:24;1.55;;;1.45;;
12908;SDS011;6522;49.622;6.126;2023-01-16T02:54:27;10.68;;;2.67;;
12908;SDS011;6522;49.622;6.126;2023-01-16T02:56:59;2.15;;;1.87;;
12908;SDS011;6522;49.622;6.126;2023-01-16T02:59:44;3.87;;;2.15;;
12908;SDS011;6522;49.622;6.126;2023-01-16T03:02:31;1.95;;;1.55;;
12908;SDS011;6522;49.622;6.126;2023-01-16T03:05:18;2.65;;;1.42;;
12908;SDS011;6522;49.622;6.126;2023-01-16T03:08:12;4.60;;;2.72;;
12908;SDS011;6522;49.622;6.126;2023-01-16T03:11:09;4.47;;;2.15;;
12908;SDS011;6522;49.622;6.126;2023-01-16T03:13:50;3.87;;;2.40;;
12908;SDS011;6522;49.622;6.126;2023-01-16T03:16:37;2.05;;;1.85;;
12908;SDS011;6522;49.622;6.126;2023-01-16T03:22:35;3.33;;;1.90;;
12908;SDS011;6522;49.622;6.126;2023-01-16T03:25:21;4.70;;;2.80;;
12908;SDS011;6522;49.622;6.126;2023-01-16T03:28:07;4.35;;;2.45;;
12908;SDS011;6522;49.622;6.126;2023-01-16T03:30:59;2.55;;;2.33;;
12908;SDS011;6522;49.622;6.126;2023-01-16T03:33:45;6.87;;;2.40;;
12908;SDS011;6522;49.622;6.126;2023-01-16T03:36:37;2.33;;;2.15;;
12908;SDS011;6522;49.622;6.126;2023-01-16T03:39:38;2.67;;;2.20;;
12908;SDS011;6522;49.622;6.126;2023-01-16T03:42:15;5.07;;;2.70;;
12908;SDS011;6522;49.622;6.126;2023-01-16T03:45:06;5.28;;;1.75;;
12908;SDS011;6522;49.622;6.126;2023-01-16T03:47:54;2.83;;;2.62;;
12908;SDS011;6522;49.622;6.126;2023-01-16T03:50:38;5.05;;;2.45;;
12908;SDS011;6522;49.622;6.126;2023-01-16T03:53:27;3.83;;;3.00;;
12908;SDS011;6522;49.622;6.126;2023-01-16T03:59:04;4.53;;;2.70;;
12908;SDS011;6522;49.622;6.126;2023-01-16T04:01:56;2.83;;;2.53;;
12908;SDS011;6522;49.622;6.126;2023-01-16T04:07:31;3.55;;;2.25;;
12908;SDS011;6522;49.622;6.126;2023-01-16T04:10:18;8.63;;;2.87;;
12908;SDS011;6522;49.622;6.126;2023-01-16T04:13:18;2.83;;;2.37;;
12908;SDS011;6522;49.622;6.126;2023-01-16T04:16:02;4.05;;;3.00;;
12908;SDS011;6522;49.622;6.126;2023-01-16T04:18:49;4.05;;;2.35;;
12908;SDS011;6522;49.622;6.126;2023-01-16T04:21:35;6.87;;;2.30;;
12908;SDS011;6522;49.622;6.126;2023-01-16T04:24:22;5.05;;;2.50;;
12908;SDS011;6522;49.622;6.126;2023-01-16T04:27:09;3.58;;;2.65;;
12908;SDS011;6522;49.622;6.126;2023-01-16T04:29:55;4.15;;;2.50;;
12908;SDS011;6522;49.622;6.126;2023-01-16T04:32:42;3.40;;;3.10;;
12908;SDS011;6522;49.622;6.126;2023-01-16T04:35:29;2.35;;;1.98;;
12908;SDS011;6522;49.622;6.126;2023-01-16T04:38:15;6.28;;;2.72;;
12908;SDS011;6522;49.622;6.126;2023-01-16T04:41:02;2.30;;;2.10;;
12908;SDS011;6522;49.622;6.126;2023-01-16T04:43:49;4.37;;;2.47;;
12908;SDS011;6522;49.622;6.126;2023-01-16T04:46:36;6.85;;;3.58;;
12908;SDS011;6522;49.622;6.126;2023-01-16T04:49:22;6.03;;;3.05;;
12908;SDS011;6522;49.622;6.126;2023-01-16T04:52:10;6.05;;;2.95;;
12908;SDS011;6522;49.622;6.126;2023-01-16T04:54:56;5.95;;;3.20;;
12908;SDS011;6522;49.622;6.126;2023-01-16T04:57:43;6.10;;;3.28;;
12908;SDS011;6522;49.622;6.126;2023-01-16T05:00:30;4.20;;;3.20;;
12908;SDS011;6522;49.622;6.126;2023-01-16T05:03:16;4.68;;;3.12;;
12908;SDS011;6522;49.622;6.126;2023-01-16T05:06:03;6.00;;;3.33;;
12908;SDS011;6522;49.622;6.126;2023-01-16T05:08:50;4.47;;;3.20;;
12908;SDS011;6522;49.622;6.126;2023-01-16T05:11:36;4.37;;;2.62;;
12908;SDS011;6522;49.622;6.126;2023-01-16T05:14:23;4.90;;;3.62;;
12908;SDS011;6522;49.622;6.126;2023-01-16T05:17:10;3.95;;;3.65;;
12908;SDS011;6522;49.622;6.126;2023-01-16T05:19:57;2.78;;;2.55;;
12908;SDS011;6522;49.622;6.126;2023-01-16T05:22:43;4.80;;;1.77;;
12908;SDS011;6522;49.622;6.126;2023-01-16T05:25:30;2.87;;;2.10;;
12908;SDS011;6522;49.622;6.126;2023-01-16T05:28:17;2.65;;;2.45;;
12908;SDS011;6522;49.622;6.126;2023-01-16T05:31:04;3.97;;;2.40;;
12908;SDS011;6522;49.622;6.126;2023-01-16T05:33:50;2.55;;;2.35;;
12908;SDS011;6522;49.622;6.126;2023-01-16T05:36:37;4.22;;;2.78;;
12908;SDS011;6522;49.622;6.126;2023-01-16T05:39:23;3.47;;;1.92;;
12908;SDS011;6522;49.622;6.126;2023-01-16T05:42:10;4.10;;;2.10;;
12908;SDS011;6522;49.622;6.126;2023-01-16T05:44:57;2.97;;;2.40;;
12908;SDS011;6522;49.622;6.126;2023-01-16T05:47:44;5.70;;;2.30;;
12908;SDS011;6522;49.622;6.126;2023-01-16T05:50:30;2.80;;;1.20;;
12908;SDS011;6522;49.622;6.126;2023-01-16T05:53:17;5.82;;;2.03;;
12908;SDS011;6522;49.622;6.126;2023-01-16T05:56:08;3.67;;;1.92;;
12908;SDS011;6522;49.622;6.126;2023-01-16T05:58:53;3.58;;;2.10;;
12908;SDS011;6522;49.622;6.126;2023-01-16T06:01:40;3.95;;;2.35;;
12908;SDS011;6522;49.622;6.126;2023-01-16T06:04:27;3.15;;;2.67;;
12908;SDS011;6522;49.622;6.126;2023-01-16T06:07:14;5.30;;;2.28;;
12908;SDS011;6522;49.622;6.126;2023-01-16T06:10:01;3.28;;;2.97;;
12908;SDS011;6522;49.622;6.126;2023-01-16T06:12:48;3.30;;;2.97;;
12908;SDS011;6522;49.622;6.126;2023-01-16T06:15:35;3.87;;;2.33;;
12908;SDS011;6522;49.622;6.126;2023-01-16T06:18:22;5.93;;;4.03;;
12908;SDS011;6522;49.622;6.126;2023-01-16T06:21:08;4.65;;;2.85;;
12908;SDS011;6522;49.622;6.126;2023-01-16T06:23:55;6.12;;;3.30;;
12908;SDS011;6522;49.622;6.126;2023-01-16T06:26:42;5.43;;;3.37;;
12908;SDS011;6522;49.622;6.126;2023-01-16T06:29:29;2.67;;;2.47;;
12908;SDS011;6522;49.622;6.126;2023-01-16T06:32:16;2.92;;;2.72;;
12908;SDS011;6522;49.622;6.126;2023-01-16T06:35:03;4.03;;;2.62;;
12908;SDS011;6522;49.622;6.126;2023-01-16T06:37:49;3.15;;;2.62;;
12908;SDS011;6522;49.622;6.126;2023-01-16T06:40:36;3.97;;;2.53;;
12908;SDS011;6522;49.622;6.126;2023-01-16T06:43:24;4.05;;;2.30;;
12908;SDS011;6522;49.622;6.126;2023-01-16T06:46:10;1.15;;;1.15;;
12908;SDS011;6522;49.622;6.126;2023-01-16T06:48:57;1.50;;;1.40;;
12908;SDS011;6522;49.622;6.126;2023-01-16T06:51:44;1.50;;;1.40;;
12908;SDS011;6522;49.622;6.126;2023-01-16T06:54:31;1.20;;;1.20;;
12908;SDS011;6522;49.622;6.126;2023-01-16T06:57:17;2.87;;;2.70;;
12908;SDS011;6522;49.622;6.126;2023-01-16T07:00:04;1.12;;;1.12;;
12908;SDS011;6522;49.622;6.126;2023-01-16T07:02:51;1.30;;;1.30;;
12908;SDS011;6522;49.622;6.126;2023-01-16T07:05:37;1.50;;;1.50;;
12908;SDS011;6522;49.622;6.126;2023-01-16T07:08:24;0.70;;;0.40;;
12908;SDS011;6522;49.622;6.126;2023-01-16T07:11:10;1.35;;;1.35;;
12908;SDS011;6522;49.622;6.126;2023-01-16T07:13:57;1.20;;;1.20;;
12908;SDS011;6522;49.622;6.126;2023-01-16T07:16:44;0.70;;;0.60;;
12908;SDS011;6522;49.622;6.126;2023-01-16T07:19:49;1.23;;;1.23;;
12908;SDS011;6522;49.622;6.126;2023-01-16T07:22:54;1.23;;;1.23;;
12908;SDS011;6522;49.622;6.126;2023-01-16T07:25:41;1.37;;;1.37;;
12908;SDS011;6522;49.622;6.126;2023-01-16T07:28:28;1.02;;;1.02;;
12908;SDS011;6522;49.622;6.126;2023-01-16T07:31:14;0.98;;;0.98;;
12908;SDS011;6522;49.622;6.126;2023-01-16T07:34:01;0.95;;;0.95;;
12908;SDS011;6522;49.622;6.126;2023-01-16T07:36:48;1.20;;;1.20;;
12908;SDS011;6522;49.622;6.126;2023-01-16T07:39:34;1.10;;;1.10;;
12908;SDS011;6522;49.622;6.126;2023-01-16T07:42:21;1.20;;;1.20;;
12908;SDS011;6522;49.622;6.126;2023-01-16T07:45:08;1.17;;;1.17;;
12908;SDS011;6522;49.622;6.126;2023-01-16T07:47:54;1.10;;;1.10;;
12908;SDS011;6522;49.622;6.126;2023-01-16T07:50:41;0.70;;;0.40;;
12908;SDS011;6522;49.622;6.126;2023-01-16T07:53:28;1.08;;;1.08;;
12908;SDS011;6522;49.622;6.126;2023-01-16T07:56:14;1.10;;;1.10;;
12908;SDS011;6522;49.622;6.126;2023-01-16T07:59:01;1.20;;;1.20;;
12908;SDS011;6522;49.622;6.126;2023-01-16T08:01:48;1.00;;;1.00;;
12908;SDS011;6522;49.622;6.126;2023-01-16T08:04:35;1.10;;;1.10;;
12908;SDS011;6522;49.622;6.126;2023-01-16T08:07:22;1.10;;;1.10;;
12908;SDS011;6522;49.622;6.126;2023-01-16T08:10:09;0.70;;;0.50;;
12908;SDS011;6522;49.622;6.126;2023-01-16T08:12:55;0.95;;;0.95;;
12908;SDS011;6522;49.622;6.126;2023-01-16T08:15:42;1.17;;;1.17;;
12908;SDS011;6522;49.622;6.126;2023-01-16T08:18:29;2.15;;;2.05;;
12908;SDS011;6522;49.622;6.126;2023-01-16T08:21:16;1.23;;;1.23;;
12908;SDS011;6522;49.622;6.126;2023-01-16T08:24:02;1.10;;;1.10;;
12908;SDS011;6522;49.622;6.126;2023-01-16T08:26:49;0.90;;;0.90;;
12908;SDS011;6522;49.622;6.126;2023-01-16T08:29:36;0.80;;;0.80;;
12908;SDS011;6522;49.622;6.126;2023-01-16T08:32:23;0.90;;;0.90;;
12908;SDS011;6522;49.622;6.126;2023-01-16T08:35:10;1.00;;;1.00;;
12908;SDS011;6522;49.622;6.126;2023-01-16T08:37:57;1.30;;;1.20;;
12908;SDS011;6522;49.622;6.126;2023-01-16T08:40:44;0.80;;;0.80;;
12908;SDS011;6522;49.622;6.126;2023-01-16T08:43:31;0.70;;;0.55;;
12908;SDS011;6522;49.622;6.126;2023-01-16T08:46:36;1.00;;;1.00;;
12908;SDS011;6522;49.622;6.126;2023-01-16T08:49:42;0.80;;;0.80;;
12908;SDS011;6522;49.622;6.126;2023-01-16T08:52:47;0.70;;;0.40;;
12908;SDS011;6522;49.622;6.126;2023-01-16T08:55:34;1.15;;;1.05;;
12908;SDS011;6522;49.622;6.126;2023-01-16T08:58:21;0.70;;;0.40;;
12908;SDS011;6522;49.622;6.126;2023-01-16T09:01:07;1.20;;;1.10;;
12908;SDS011;6522;49.622;6.126;2023-01-16T09:03:54;1.35;;;1.25;;
12908;SDS011;6522;49.622;6.126;2023-01-16T09:06:41;0.90;;;0.90;;
12908;SDS011;6522;49.622;6.126;2023-01-16T09:09:27;1.10;;;1.00;;
12908;SDS011;6522;49.622;6.126;2023-01-16T09:12:14;1.10;;;1.00;;
12908;SDS011;6522;49.622;6.126;2023-01-16T09:15:19;0.98;;;0.90;;
12908;SDS011;6522;49.622;6.126;2023-01-16T09:18:06;1.10;;;1.00;;
12908;SDS011;6522;49.622;6.126;2023-01-16T09:20:52;1.10;;;1.00;;
12908;SDS011;6522;49.622;6.126;2023-01-16T09:23:39;1.10;;;1.00;;
12908;SDS011;6522;49.622;6.126;2023-01-16T09:26:26;1.10;;;1.00;;
12908;SDS011;6522;49.622;6.126;2023-01-16T09:29:13;1.05;;;0.95;;
12908;SDS011;6522;49.622;6.126;2023-01-16T09:32:00;1.00;;;0.90;;
12908;SDS011;6522;49.622;6.126;2023-01-16T09:34:46;1.15;;;1.05;;
12908;SDS011;6522;49.622;6.126;2023-01-16T09:37:33;0.93;;;0.88;;
12908;SDS011;6522;49.622;6.126;2023-01-16T09:40:20;0.80;;;0.75;;
12908;SDS011;6522;49.622;6.126;2023-01-16T09:46:27;0.98;;;0.88;;
12908;SDS011;6522;49.622;6.126;2023-01-16T09:49:21;1.00;;;0.90;;
12908;SDS011;6522;49.622;6.126;2023-01-16T09:52:09;1.00;;;0.90;;
12908;SDS011;6522;49.622;6.126;2023-01-16T09:54:54;0.98;;;0.88;;
12908;SDS011;6522;49.622;6.126;2023-01-16T09:57:58;1.00;;;0.90;;
12908;SDS011;6522;49.622;6.126;2023-01-16T10:01:19;1.00;;;0.90;;
12908;SDS011;6522;49.622;6.126;2023-01-16T10:04:13;2.15;;;1.42;;
12908;SDS011;6522;49.622;6.126;2023-01-16T10:07:07;1.50;;;1.40;;
12908;SDS011;6522;49.622;6.126;2023-01-16T10:12:36;2.22;;;2.00;;
12908;SDS011;6522;49.622;6.126;2023-01-16T10:18:52;2.42;;;1.67;;
12908;SDS011;6522;49.622;6.126;2023-01-16T10:24:19;1.73;;;1.62;;
12908;SDS011;6522;49.622;6.126;2023-01-16T10:27:09;5.15;;;2.75;;
12908;SDS011;6522;49.622;6.126;2023-01-16T10:29:57;2.50;;;2.30;;
12908;SDS011;6522;49.622;6.126;2023-01-16T10:32:44;2.30;;;2.12;;
12908;SDS011;6522;49.622;6.126;2023-01-16T10:35:31;1.80;;;1.70;;
12908;SDS011;6522;49.622;6.126;2023-01-16T10:38:26;2.17;;;2.00;;
12908;SDS011;6522;49.622;6.126;2023-01-16T10:41:12;1.70;;;1.60;;
12908;SDS011;6522;49.622;6.126;2023-01-16T10:43:58;2.92;;;1.73;;
12908;SDS011;6522;49.622;6.126;2023-01-16T10:47:08;3.15;;;1.60;;
12908;SDS011;6522;49.622;6.126;2023-01-16T10:50:09;1.00;;;1.00;;
12908;SDS011;6522;49.622;6.126;2023-01-16T10:52:56;0.95;;;0.95;;
12908;SDS011;6522;49.622;6.126;2023-01-16T10:55:42;1.33;;;1.23;;
12908;SDS011;6522;49.622;6.126;2023-01-16T10:58:29;1.15;;;1.10;;
12908;SDS011;6522;49.622;6.126;2023-01-16T11:01:17;1.60;;;1.50;;
12908;SDS011;6522;49.622;6.126;2023-01-16T11:04:04;1.30;;;1.20;;
12908;SDS011;6522;49.622;6.126;2023-01-16T11:06:49;1.40;;;1.30;;
12908;SDS011;6522;49.622;6.126;2023-01-16T11:09:36;1.00;;;1.00;;
12908;SDS011;6522;49.622;6.126;2023-01-16T11:12:26;1.20;;;1.10;;
12908;SDS011;6522;49.622;6.126;2023-01-16T11:15:27;1.00;;;1.00;;
12908;SDS011;6522;49.622;6.126;2023-01-16T11:18:34;1.30;;;1.20;;
12908;SDS011;6522;49.622;6.126;2023-01-16T11:21:23;1.40;;;1.30;;
12908;SDS011;6522;49.622;6.126;2023-01-16T11:24:17;1.55;;;1.45;;
12908;SDS011;6522;49.622;6.126;2023-01-16T11:27:04;1.20;;;1.10;;
12908;SDS011;6522;49.622;6.126;2023-01-16T11:29:51;3.35;;;1.80;;
12908;SDS011;6522;49.622;6.126;2023-01-16T11:32:35;2.28;;;1.80;;
12908;SDS011;6522;49.622;6.126;2023-01-16T11:35:24;2.30;;;1.70;;
12908;SDS011;6522;49.622;6.126;2023-01-16T11:38:12;1.67;;;1.58;;
12908;SDS011;6522;49.622;6.126;2023-01-16T11:40:55;2.10;;;1.90;;
12908;SDS011;6522;49.622;6.126;2023-01-16T11:43:42;4.60;;;2.15;;
12908;SDS011;6522;49.622;6.126;2023-01-16T11:46:48;2.20;;;2.10;;
12908;SDS011;6522;49.622;6.126;2023-01-16T11:49:41;4.25;;;2.10;;
12908;SDS011;6522;49.622;6.126;2023-01-16T11:52:27;2.25;;;1.80;;
12908;SDS011;6522;49.622;6.126;2023-01-16T11:55:14;2.08;;;1.90;;
12908;SDS011;6522;49.622;6.126;2023-01-16T11:58:19;3.83;;;1.52;;
12908;SDS011;6522;49.622;6.126;2023-01-16T12:04:24;2.30;;;2.20;;
12908;SDS011;6522;49.622;6.126;2023-01-16T12:07:15;2.33;;;2.15;;
12908;SDS011;6522;49.622;6.126;2023-01-16T12:10:02;3.05;;;2.30;;
12908;SDS011;6522;49.622;6.126;2023-01-16T12:12:50;2.17;;;2.08;;
12908;SDS011;6522;49.622;6.126;2023-01-16T12:22:03;2.60;;;1.95;;
12908;SDS011;6522;49.622;6.126;2023-01-16T12:24:40;2.58;;;2.37;;
12908;SDS011;6522;49.622;6.126;2023-01-16T12:30:33;2.17;;;2.00;;
12908;SDS011;6522;49.622;6.126;2023-01-16T12:33:23;1.55;;;1.45;;
12908;SDS011;6522;49.622;6.126;2023-01-16T12:36:07;2.35;;;1.60;;
12908;SDS011;6522;49.622;6.126;2023-01-16T12:39:08;2.00;;;1.90;;
12908;SDS011;6522;49.622;6.126;2023-01-16T12:45:14;2.90;;;2.72;;
12908;SDS011;6522;49.622;6.126;2023-01-16T12:56:33;2.85;;;1.95;;
12908;SDS011;6522;49.622;6.126;2023-01-16T12:59:19;1.92;;;1.83;;
12908;SDS011;6522;49.622;6.126;2023-01-16T13:05:11;2.33;;;2.12;;
12908;SDS011;6522;49.622;6.126;2023-01-16T13:07:59;2.00;;;1.90;;
12908;SDS011;6522;49.622;6.126;2023-01-16T13:10:43;2.28;;;2.10;;
12908;SDS011;6522;49.622;6.126;2023-01-16T13:13:53;1.90;;;1.80;;
12908;SDS011;6522;49.622;6.126;2023-01-16T13:16:40;2.25;;;2.10;;
12908;SDS011;6522;49.622;6.126;2023-01-16T13:19:25;2.35;;;2.15;;
12908;SDS011;6522;49.622;6.126;2023-01-16T13:22:25;2.90;;;1.30;;
12908;SDS011;6522;49.622;6.126;2023-01-16T13:25:18;2.33;;;1.92;;
12908;SDS011;6522;49.622;6.126;2023-01-16T13:31:30;2.30;;;2.10;;
12908;SDS011;6522;49.622;6.126;2023-01-16T13:34:22;4.00;;;2.00;;
12908;SDS011;6522;49.622;6.126;2023-01-16T13:37:18;2.10;;;1.60;;
12908;SDS011;6522;49.622;6.126;2023-01-16T13:42:59;1.50;;;0.80;;
12908;SDS011;6522;49.622;6.126;2023-01-16T13:45:43;1.65;;;1.55;;
12908;SDS011;6522;49.622;6.126;2023-01-16T13:48:36;1.67;;;1.58;;
12908;SDS011;6522;49.622;6.126;2023-01-16T13:51:23;1.15;;;1.10;;
12908;SDS011;6522;49.622;6.126;2023-01-16T13:54:17;1.30;;;1.25;;
12908;SDS011;6522;49.622;6.126;2023-01-16T13:57:03;1.65;;;1.50;;
12908;SDS011;6522;49.622;6.126;2023-01-16T13:59:56;1.65;;;1.20;;
12908;SDS011;6522;49.622;6.126;2023-01-16T14:02:43;1.60;;;1.50;;
12908;SDS011;6522;49.622;6.126;2023-01-16T14:08:29;1.20;;;1.12;;
12908;SDS011;6522;49.622;6.126;2023-01-16T14:11:33;1.27;;;1.17;;
12908;SDS011;6522;49.622;6.126;2023-01-16T14:17:10;1.50;;;1.40;;
12908;SDS011;6522;49.622;6.126;2023-01-16T14:19:57;1.58;;;1.48;;
12908;SDS011;6522;49.622;6.126;2023-01-16T14:22:43;1.27;;;1.17;;
12908;SDS011;6522;49.622;6.126;2023-01-16T14:25:52;1.85;;;1.75;;
12908;SDS011;6522;49.622;6.126;2023-01-16T14:28:38;1.67;;;1.58;;
12908;SDS011;6522;49.622;6.126;2023-01-16T14:31:42;1.70;;;1.40;;
12908;SDS011;6522;49.622;6.126;2023-01-16T14:34:29;1.50;;;1.40;;
12908;SDS011;6522;49.622;6.126;2023-01-16T14:37:21;1.48;;;1.37;;
12908;SDS011;6522;49.622;6.126;2023-01-16T14:42:56;1.60;;;1.50;;
12908;SDS011;6522;49.622;6.126;2023-01-16T14:46:49;1.90;;;1.80;;
12908;SDS011;6522;49.622;6.126;2023-01-16T14:52:35;2.00;;;1.40;;
12908;SDS011;6522;49.622;6.126;2023-01-16T15:01:20;2.20;;;2.00;;
12908;SDS011;6522;49.622;6.126;2023-01-16T15:04:22;1.70;;;1.60;;
12908;SDS011;6522;49.622;6.126;2023-01-16T15:07:09;1.50;;;1.40;;
12908;SDS011;6522;49.622;6.126;2023-01-16T15:09:56;1.80;;;1.70;;
12908;SDS011;6522;49.622;6.126;2023-01-16T15:12:43;1.60;;;1.50;;
12908;SDS011;6522;49.622;6.126;2023-01-16T15:15:29;2.00;;;1.90;;
12908;SDS011;6522;49.622;6.126;2023-01-16T15:18:16;1.83;;;1.52;;
12908;SDS011;6522;49.622;6.126;2023-01-16T15:21:21;2.70;;;2.50;;
12908;SDS011;6522;49.622;6.126;2023-01-16T15:24:26;2.10;;;2.00;;
12908;SDS011;6522;49.622;6.126;2023-01-16T15:27:14;2.10;;;2.00;;
12908;SDS011;6522;49.622;6.126;2023-01-16T15:30:02;3.10;;;2.90;;
12908;SDS011;6522;49.622;6.126;2023-01-16T15:32:59;3.85;;;2.47;;
12908;SDS011;6522;49.622;6.126;2023-01-16T15:35:54;3.20;;;2.90;;
12908;SDS011;6522;49.622;6.126;2023-01-16T15:38:35;5.18;;;3.30;;
12908;SDS011;6522;49.622;6.126;2023-01-16T15:41:23;4.10;;;3.80;;
12908;SDS011;6522;49.622;6.126;2023-01-16T15:44:09;4.25;;;3.85;;
12908;SDS011;6522;49.622;6.126;2023-01-16T15:52:57;3.30;;;3.10;;
12908;SDS011;6522;49.622;6.126;2023-01-16T15:55:54;3.35;;;2.95;;
12908;SDS011;6522;49.622;6.126;2023-01-16T15:58:29;2.50;;;2.30;;
12908;SDS011;6522;49.622;6.126;2023-01-16T16:01:23;1.73;;;1.62;;
12908;SDS011;6522;49.622;6.126;2023-01-16T16:04:03;2.08;;;1.98;;
12908;SDS011;6522;49.622;6.126;2023-01-16T16:06:50;2.08;;;1.80;;
12908;SDS011;6522;49.622;6.126;2023-01-16T16:09:36;1.92;;;1.10;;
12908;SDS011;6522;49.622;6.126;2023-01-16T16:12:23;1.58;;;1.48;;
12908;SDS011;6522;49.622;6.126;2023-01-16T16:15:19;1.60;;;1.50;;
12908;SDS011;6522;49.622;6.126;2023-01-16T16:18:16;1.70;;;1.60;;
12908;SDS011;6522;49.622;6.126;2023-01-16T16:21:05;1.85;;;1.75;;
12908;SDS011;6522;49.622;6.126;2023-01-16T16:23:55;1.67;;;1.58;;
12908;SDS011;6522;49.622;6.126;2023-01-16T16:26:41;1.60;;;1.50;;
12908;SDS011;6522;49.622;6.126;2023-01-16T16:29:27;1.85;;;1.75;;
12908;SDS011;6522;49.622;6.126;2023-01-16T16:32:14;1.92;;;1.83;;
12908;SDS011;6522;49.622;6.126;2023-01-16T16:35:01;2.10;;;1.90;;
12908;SDS011;6522;49.622;6.126;2023-01-16T16:37:48;2.05;;;1.95;;
12908;SDS011;6522;49.622;6.126;2023-01-16T16:40:34;2.28;;;2.17;;
12908;SDS011;6522;49.622;6.126;2023-01-16T16:49:25;2.35;;;2.15;;
12908;SDS011;6522;49.622;6.126;2023-01-16T16:52:25;2.45;;;2.35;;
12908;SDS011;6522;49.622;6.126;2023-01-16T16:58:14;2.53;;;2.42;;
12908;SDS011;6522;49.622;6.126;2023-01-16T17:01:00;2.67;;;2.50;;
12908;SDS011;6522;49.622;6.126;2023-01-16T17:03:48;2.90;;;2.70;;
12908;SDS011;6522;49.622;6.126;2023-01-16T17:06:34;2.80;;;2.70;;
12908;SDS011;6522;49.622;6.126;2023-01-16T17:09:20;2.70;;;2.55;;
12908;SDS011;6522;49.622;6.126;2023-01-16T17:12:17;2.80;;;2.60;;
12908;SDS011;6522;49.622;6.126;2023-01-16T17:15:03;2.55;;;2.45;;
12908;SDS011;6522;49.622;6.126;2023-01-16T17:17:49;4.25;;;2.58;;
12908;SDS011;6522;49.622;6.126;2023-01-16T17:20:36;3.03;;;2.67;;
12908;SDS011;6522;49.622;6.126;2023-01-16T17:23:22;3.58;;;2.35;;
12908;SDS011;6522;49.622;6.126;2023-01-16T17:26:09;1.60;;;1.50;;
12908;SDS011;6522;49.622;6.126;2023-01-16T17:28:56;2.33;;;2.22;;
12908;SDS011;6522;49.622;6.126;2023-01-16T17:31:43;2.70;;;2.60;;
12908;SDS011;6522;49.622;6.126;2023-01-16T17:34:30;2.80;;;2.60;;
12908;SDS011;6522;49.622;6.126;2023-01-16T17:37:16;2.62;;;2.42;;
12908;SDS011;6522;49.622;6.126;2023-01-16T17:40:03;2.87;;;2.67;;
12908;SDS011;6522;49.622;6.126;2023-01-16T17:42:50;3.60;;;2.65;;
12908;SDS011;6522;49.622;6.126;2023-01-16T17:45:55;2.70;;;2.50;;
12908;SDS011;6522;49.622;6.126;2023-01-16T17:48:42;3.72;;;3.00;;
12908;SDS011;6522;49.622;6.126;2023-01-16T17:51:28;4.00;;;3.70;;
12908;SDS011;6522;49.622;6.126;2023-01-16T17:54:15;2.10;;;2.00;;
12908;SDS011;6522;49.622;6.126;2023-01-16T17:57:01;2.80;;;2.60;;
12908;SDS011;6522;49.622;6.126;2023-01-16T17:59:48;3.28;;;3.08;;
12908;SDS011;6522;49.622;6.126;2023-01-16T18:02:35;3.83;;;3.50;;
12908;SDS011;6522;49.622;6.126;2023-01-16T18:05:22;3.95;;;2.70;;
12908;SDS011;6522;49.622;6.126;2023-01-16T18:08:08;4.20;;;3.62;;
12908;SDS011;6522;49.622;6.126;2023-01-16T18:10:55;3.72;;;3.33;;
12908;SDS011;6522;49.622;6.126;2023-01-16T18:13:41;5.00;;;4.47;;
12908;SDS011;6522;49.622;6.126;2023-01-16T18:16:47;4.43;;;2.90;;
12908;SDS011;6522;49.622;6.126;2023-01-16T18:19:53;3.78;;;3.47;;
12908;SDS011;6522;49.622;6.126;2023-01-16T18:22:39;4.75;;;4.20;;
12908;SDS011;6522;49.622;6.126;2023-01-16T18:25:25;4.30;;;3.90;;
12908;SDS011;6522;49.622;6.126;2023-01-16T18:28:12;4.43;;;4.12;;
12908;SDS011;6522;49.622;6.126;2023-01-16T18:31:05;5.43;;;5.00;;
12908;SDS011;6522;49.622;6.126;2023-01-16T18:33:52;5.00;;;4.50;;
12908;SDS011;6522;49.622;6.126;2023-01-16T18:36:38;4.32;;;3.92;;
12908;SDS011;6522;49.622;6.126;2023-01-16T18:39:25;4.78;;;4.40;;
12908;SDS011;6522;49.622;6.126;2023-01-16T18:42:30;5.15;;;4.65;;
12908;SDS011;6522;49.622;6.126;2023-01-16T18:45:36;8.30;;;5.72;;
12908;SDS011;6522;49.622;6.126;2023-01-16T18:48:41;6.65;;;4.75;;
12908;SDS011;6522;49.622;6.126;2023-01-16T18:51:46;6.43;;;5.35;;
12908;SDS011;6522;49.622;6.126;2023-01-16T18:54:51;7.65;;;5.82;;
12908;SDS011;6522;49.622;6.126;2023-01-16T18:57:56;6.10;;;5.60;;